Time;durP1;ratioP1;P1;durP2;ratioP2;P2;SDS_P1;SDS_P2;PMS_P1;PMS_P2;Temp;Humidity;BMP_temperature;BMP_pressure;BME280_temperature;BME280_humidity;BME280_pressure;Samples;Min_cycle;Max_cycle;Signal;HPM_P1;HPM_P2
2021/07/01 00:00:25;;;;;;;;;;;;;;;-142.75;73.05;77131.34;5061144;28;19925;-84
2021/07/01 00:02:50;;;;;;;;;;;;;;;-142.75;73.12;77129.38;5058615;28;20435;-84
2021/07/01 00:05:16;;;;;;;;;;;;;;;-142.75;72.78;77129.38;5050539;28;19931;-83
2021/07/01 00:07:42;;;;;;;;;;;;;;;-142.75;72.74;77133.31;5062466;28;19958;-81
2021/07/01 00:10:09;;;;;;;;;;;;;;;-142.75;72.45;77141.19;5051720;28;19961;-82
2021/07/01 00:12:35;;;;;;;;;;;;;;;-142.75;71.78;77145.13;5064626;28;20354;-83
2021/07/01 00:15:00;;;;;;;;;;;;;;;-142.75;71.72;77149.06;5050848;28;20005;-83
2021/07/01 00:17:25;;;;;;;;;;;;;;;-142.75;71.64;77149.06;5061419;28;19917;-82
2021/07/01 00:19:50;;;;;;;;;;;;;;;-142.75;71.32;77147.09;5059317;28;20423;-80
2021/07/01 00:22:16;;;;;;;;;;;;;;;-142.75;71.01;77145.13;5050025;28;20026;-82
2021/07/01 00:24:41;;;;;;;;;;;;;;;-142.75;71.13;77149.06;5057905;28;19924;-80
2021/07/01 00:27:06;;;;;;;;;;;;;;;-142.75;70.72;77149.06;5061479;28;19975;-81
2021/07/01 00:29:31;;;;;;;;;;;;;;;-142.75;70.48;77151.03;5058632;28;19924;-83
2021/07/01 00:31:57;;;;;;;;;;;;;;;-142.75;71.10;77154.97;5048589;28;20011;-82
2021/07/01 00:34:22;;;;;;;;;;;;;;;-142.75;71.27;77162.84;5052422;28;20352;-83
2021/07/01 00:36:47;;;;;;;;;;;;;;;-142.75;71.56;77164.81;5052534;28;19916;-83
2021/07/01 00:39:12;;;;;;;;;;;;;;;-142.75;71.90;77160.88;5056814;28;19923;-84
2021/07/01 00:41:37;;;;;;;;;;;;;;;-142.75;71.58;77156.94;5061898;28;19916;-83
2021/07/01 00:44:03;;;;;;;;;;;;;;;-142.75;71.71;77153.00;5051510;28;19928;-83
2021/07/01 00:46:29;;;;;;;;;;;;;;;-142.75;70.58;77151.03;5049114;28;19924;-82
2021/07/01 00:48:54;;;;;;;;;;;;;;;-142.75;70.26;77154.97;5069437;28;19997;-82
2021/07/01 00:51:19;;;;;;;;;;;;;;;-142.75;70.71;77151.03;5067598;28;19920;-82
2021/07/01 00:53:45;;;;;;;;;;;;;;;-142.75;70.27;77151.03;5070876;28;19916;-82
2021/07/01 00:56:10;;;;;;;;;;;;;;;-142.75;70.49;77153.00;5050946;28;19926;-83
2021/07/01 00:58:36;;;;;;;;;;;;;;;-142.75;70.76;77153.00;5050482;28;20458;-80
2021/07/01 01:01:02;;;;;;;;;;;;;;;-142.75;70.04;77149.06;5050477;28;20347;-83
2021/07/01 01:03:28;;;;;;;;;;;;;;;-142.75;69.94;77145.13;5064644;28;19916;-81
2021/07/01 01:05:53;;;;;;;;;;;;;;;-142.75;69.69;77141.19;5061538;28;19960;-82
2021/07/01 01:08:18;;;;;;;;;;;;;;;-142.75;70.00;77149.06;5052609;28;20408;-84
2021/07/01 01:10:44;;;;;;;;;;;;;;;-142.75;70.20;77141.19;5050829;28;19917;-84
2021/07/01 01:13:10;;;;;;;;;;;;;;;-142.75;69.93;77137.25;5060391;28;20015;-85
2021/07/01 01:15:35;;;;;;;;;;;;;;;-142.75;70.18;77137.25;5056449;28;19916;-84
2021/07/01 01:18:00;;;;;;;;;;;;;;;-142.75;70.09;77141.19;5054998;28;19923;-83
2021/07/01 01:20:26;;;;;;;;;;;;;;;-142.75;70.06;77141.19;5054968;28;19917;-84
2021/07/01 01:22:51;;;;;;;;;;;;;;;-142.75;70.10;77141.19;5057471;28;19916;-82
2021/07/01 01:25:16;;;;;;;;;;;;;;;-142.75;69.64;77143.16;5056237;28;19917;-83
2021/07/01 01:27:41;;;;;;;;;;;;;;;-142.75;68.91;77135.28;5055568;28;19927;-83
2021/07/01 01:30:07;;;;;;;;;;;;;;;-142.75;69.50;77133.31;5054165;28;20278;-84
2021/07/01 01:32:32;;;;;;;;;;;;;;;-142.75;69.67;77129.38;5063218;28;20378;-84
2021/07/01 01:34:58;;;;;;;;;;;;;;;-142.75;70.03;77133.31;5069918;28;19924;-84
2021/07/01 01:37:23;;;;;;;;;;;;;;;-142.75;69.93;77139.22;5055945;28;19921;-84
2021/07/01 01:39:49;;;;;;;;;;;;;;;-142.75;69.92;77145.13;5053738;28;19924;-84
2021/07/01 01:42:14;;;;;;;;;;;;;;;-142.75;69.44;77141.19;5056028;28;19985;-85
2021/07/01 01:44:39;;;;;;;;;;;;;;;-142.75;69.58;77139.22;5064015;28;20373;-86
2021/07/01 01:47:18;;;;;;;;;;;;;;;-142.75;69.91;77145.13;5052783;28;19926;-85
2021/07/01 01:49:47;;;;;;;;;;;;;;;-142.75;69.87;77147.09;5055508;28;20401;-81
2021/07/01 01:52:13;;;;;;;;;;;;;;;-142.75;69.83;77137.25;5055425;28;19917;-83
2021/07/01 01:54:38;;;;;;;;;;;;;;;-142.75;69.96;77143.16;5063353;28;20396;-84
2021/07/01 01:57:03;;;;;;;;;;;;;;;-142.75;69.81;77143.16;5055947;28;20522;-84
2021/07/01 01:59:28;;;;;;;;;;;;;;;-142.75;70.18;77145.13;5064109;28;19913;-83
2021/07/01 02:01:54;;;;;;;;;;;;;;;-142.75;70.31;77141.19;5060432;28;19927;-83
2021/07/01 02:04:19;;;;;;;;;;;;;;;-142.75;70.15;77141.19;5057629;28;19917;-82
2021/07/01 02:06:44;;;;;;;;;;;;;;;-142.75;69.60;77145.13;5055041;28;19924;-83
2021/07/01 02:09:09;;;;;;;;;;;;;;;-142.75;69.02;77141.19;5057248;28;19952;-82
2021/07/01 02:11:34;;;;;;;;;;;;;;;-142.75;69.10;77143.16;5065773;28;19989;-84
2021/07/01 02:14:00;;;;;;;;;;;;;;;-142.75;68.99;77147.09;5053080;28;20370;-84
2021/07/01 02:16:25;;;;;;;;;;;;;;;-142.75;69.13;77149.06;5063705;28;19924;-84
2021/07/01 02:18:51;;;;;;;;;;;;;;;-142.75;68.98;77141.19;5055087;28;19960;-82
2021/07/01 02:21:16;;;;;;;;;;;;;;;-142.75;69.11;77149.06;5053963;28;20372;-83
2021/07/01 02:23:42;;;;;;;;;;;;;;;-142.75;69.10;77151.03;5060806;28;19956;-83
2021/07/01 02:26:07;;;;;;;;;;;;;;;-142.75;68.89;77153.00;5052984;28;19928;-81
2021/07/01 02:28:32;;;;;;;;;;;;;;;-142.75;69.08;77149.06;5065452;28;20496;-82
2021/07/01 02:30:57;;;;;;;;;;;;;;;-142.75;69.13;77149.06;5055110;28;19916;-82
2021/07/01 02:33:22;;;;;;;;;;;;;;;-142.75;69.04;77154.97;5053883;28;20180;-84
2021/07/01 02:35:48;;;;;;;;;;;;;;;-142.75;69.32;77153.00;5054960;28;19997;-82
2021/07/01 02:38:13;;;;;;;;;;;;;;;-142.75;69.33;77151.03;5072079;28;19921;-77
2021/07/01 02:40:38;;;;;;;;;;;;;;;-142.75;69.12;77154.97;5053627;28;19917;-82
2021/07/01 02:43:04;;;;;;;;;;;;;;;-142.75;68.50;77149.06;5058609;28;19916;-81
2021/07/01 02:45:29;;;;;;;;;;;;;;;-142.75;68.50;77153.00;5053229;28;19916;-82
2021/07/01 02:47:54;;;;;;;;;;;;;;;-142.75;68.49;77151.03;5051893;28;19928;-83
2021/07/01 02:50:19;;;;;;;;;;;;;;;-142.75;68.81;77156.94;5051510;28;19923;-83
2021/07/01 02:52:45;;;;;;;;;;;;;;;-142.75;68.80;77156.94;5054033;28;19916;-83
2021/07/01 02:55:10;;;;;;;;;;;;;;;-142.75;69.51;77153.00;5055377;28;19923;-82
2021/07/01 02:57:36;;;;;;;;;;;;;;;-142.75;68.96;77156.94;5065773;28;19966;-81
2021/07/01 03:00:03;;;;;;;;;;;;;;;-142.75;69.07;77153.00;5061381;28;19939;-79
2021/07/01 03:02:28;;;;;;;;;;;;;;;-142.75;69.47;77156.94;5063536;28;19917;-82
2021/07/01 03:04:53;;;;;;;;;;;;;;;-142.75;69.34;77153.00;5053802;28;19927;-80
2021/07/01 03:07:18;;;;;;;;;;;;;;;-142.75;69.49;77156.94;5064310;28;19920;-83
2021/07/01 03:09:44;;;;;;;;;;;;;;;-142.75;69.73;77158.91;5052543;28;19924;-84
2021/07/01 03:12:09;;;;;;;;;;;;;;;-142.75;69.51;77153.00;5053315;28;19963;-83
2021/07/01 03:14:34;;;;;;;;;;;;;;;-142.75;69.76;77151.03;5053673;28;19916;-81
2021/07/01 03:17:00;;;;;;;;;;;;;;;-142.75;69.99;77158.91;5067872;28;19962;-82
2021/07/01 03:19:25;;;;;;;;;;;;;;;-142.75;70.25;77162.84;5052685;28;19977;-85
2021/07/01 03:21:51;;;;;;;;;;;;;;;-142.75;70.63;77170.72;5059958;28;21413;-82
2021/07/01 03:24:16;;;;;;;;;;;;;;;-142.75;71.00;77160.88;5060108;28;19924;-82
2021/07/01 03:26:41;;;;;;;;;;;;;;;-142.75;70.73;77164.81;5066767;28;19929;-81
2021/07/01 03:29:08;;;;;;;;;;;;;;;-142.75;71.13;77166.78;5061049;28;19963;-81
2021/07/01 03:31:33;;;;;;;;;;;;;;;-142.75;71.00;77153.00;5052028;28;19949;-84
2021/07/01 03:33:58;;;;;;;;;;;;;;;-142.75;70.86;77149.06;5069649;28;20010;-83
2021/07/01 03:36:23;;;;;;;;;;;;;;;-142.75;70.59;77158.91;5050461;28;19920;-84
2021/07/01 03:38:48;;;;;;;;;;;;;;;-142.75;70.61;77156.94;5058680;28;19928;-80
2021/07/01 03:41:14;;;;;;;;;;;;;;;-142.75;70.55;77156.94;5062156;28;19946;-84
2021/07/01 03:43:45;;;;;;;;;;;;;;;-142.75;70.89;77160.88;5052568;28;19925;-82
2021/07/01 03:46:13;;;;;;;;;;;;;;;-142.75;70.21;77162.84;5084879;22;19912;-81
2021/07/01 03:48:38;;;;;;;;;;;;;;;-142.75;70.57;77158.91;5079614;28;20317;-80
2021/07/01 03:51:05;;;;;;;;;;;;;;;-142.75;70.46;77166.78;5088264;28;20018;-78
2021/07/01 03:53:30;;;;;;;;;;;;;;;-142.75;70.79;77166.78;5081481;28;20459;-78
2021/07/01 03:55:55;;;;;;;;;;;;;;;-142.75;71.25;77164.81;5084596;28;19924;-79
2021/07/01 03:58:21;;;;;;;;;;;;;;;-142.75;70.92;77168.75;5082887;28;19962;-80
2021/07/01 04:00:46;;;;;;;;;;;;;;;-142.75;71.08;77170.72;5076812;28;19963;-80
2021/07/01 04:03:11;;;;;;;;;;;;;;;-142.75;70.84;77170.72;5090325;28;19916;-79
2021/07/01 04:05:37;;;;;;;;;;;;;;;-142.75;71.01;77168.75;5076177;28;19916;-80
2021/07/01 04:08:02;;;;;;;;;;;;;;;-142.75;71.13;77166.78;5089380;28;19936;-79
2021/07/01 04:10:27;;;;;;;;;;;;;;;-142.75;71.10;77168.75;5081701;28;20011;-79
2021/07/01 04:12:52;;;;;;;;;;;;;;;-142.75;70.86;77162.84;5088872;28;19959;-80
2021/07/01 04:15:17;;;;;;;;;;;;;;;-142.75;71.37;77164.81;5071863;28;19931;-80
2021/07/01 04:17:43;;;;;;;;;;;;;;;-142.75;71.29;77164.81;5079226;28;19928;-80
2021/07/01 04:20:08;;;;;;;;;;;;;;;-142.75;70.99;77160.88;5075062;28;19924;-78
2021/07/01 04:22:34;;;;;;;;;;;;;;;-142.75;70.54;77162.84;5085108;28;19924;-78
2021/07/01 04:24:59;;;;;;;;;;;;;;;-142.75;70.79;77156.94;5073777;28;19923;-79
2021/07/01 04:27:24;;;;;;;;;;;;;;;-142.75;70.67;77156.94;5083712;28;19970;-79
2021/07/01 04:29:49;;;;;;;;;;;;;;;-142.75;70.21;77158.91;5074483;28;19920;-77
2021/07/01 04:32:15;;;;;;;;;;;;;;;-142.75;70.22;77156.94;5090003;28;20285;-80
2021/07/01 04:34:40;;;;;;;;;;;;;;;-142.75;70.27;77154.97;5084100;28;19920;-79
2021/07/01 04:37:05;;;;;;;;;;;;;;;-142.75;70.73;77151.03;5078923;28;20411;-79
2021/07/01 04:39:31;;;;;;;;;;;;;;;-142.75;71.36;77158.91;5078949;28;20014;-78
2021/07/01 04:41:56;;;;;;;;;;;;;;;-142.75;71.69;77156.94;5075987;28;19912;-79
2021/07/01 04:44:22;;;;;;;;;;;;;;;-142.75;71.91;77156.94;5089520;28;19916;-78
2021/07/01 04:46:47;;;;;;;;;;;;;;;-142.75;72.11;77160.88;5089473;28;19966;-81
2021/07/01 04:49:12;;;;;;;;;;;;;;;-142.75;72.68;77158.91;5077873;28;19916;-77
2021/07/01 04:51:37;;;;;;;;;;;;;;;-142.75;72.76;77154.97;5078997;28;19959;-78
2021/07/01 04:54:03;;;;;;;;;;;;;;;-142.75;73.07;77156.94;5089714;28;19920;-78
2021/07/01 04:56:43;;;;;;;;;;;;;;;-142.75;73.47;77153.00;5089507;28;19923;-79
2021/07/01 04:59:08;;;;;;;;;;;;;;;-142.75;73.55;77151.03;5076677;28;19916;-80
2021/07/01 05:01:33;;;;;;;;;;;;;;;-142.75;73.54;77151.03;5073958;28;20426;-79
2021/07/01 05:03:59;;;;;;;;;;;;;;;-142.75;73.59;77154.97;5089159;28;19916;-81
2021/07/01 05:06:24;;;;;;;;;;;;;;;-142.75;73.86;77154.97;5081673;28;19916;-81
2021/07/01 05:08:49;;;;;;;;;;;;;;;-142.75;73.74;77153.00;5089045;28;20018;-80
2021/07/01 05:11:14;;;;;;;;;;;;;;;-142.75;73.62;77149.06;5084020;28;19997;-81
2021/07/01 05:13:39;;;;;;;;;;;;;;;-142.75;73.36;77145.13;5079096;28;19916;-80
2021/07/01 05:16:04;;;;;;;;;;;;;;;-142.75;73.57;77141.19;5077418;28;19960;-79
2021/07/01 05:18:30;;;;;;;;;;;;;;;-142.75;73.55;77139.22;5071447;28;20364;-79
2021/07/01 05:20:55;;;;;;;;;;;;;;;-142.75;73.60;77141.19;5088496;28;19916;-79
2021/07/01 05:23:20;;;;;;;;;;;;;;;-142.75;73.36;77129.38;5074767;28;19977;-80
2021/07/01 05:25:45;;;;;;;;;;;;;;;-142.75;73.16;77133.31;5077371;28;20338;-79
2021/07/01 05:28:11;;;;;;;;;;;;;;;-142.75;73.27;77125.44;5074890;28;19931;-80
2021/07/01 05:30:36;;;;;;;;;;;;;;;-142.75;73.24;77125.44;5088687;28;19969;-80
2021/07/01 05:33:02;;;;;;;;;;;;;;;-142.75;73.04;77123.47;5088498;28;20404;-80
2021/07/01 05:35:27;;;;;;;;;;;;;;;-142.75;73.04;77113.63;5075362;28;19917;-80
2021/07/01 05:37:52;;;;;;;;;;;;;;;-142.75;72.58;77105.75;5078135;28;19950;-80
2021/07/01 05:40:18;;;;;;;;;;;;;;;-142.75;72.66;77113.63;5087992;28;20338;-79
2021/07/01 05:42:43;;;;;;;;;;;;;;;-142.75;72.73;77109.69;5071714;28;19924;-80
2021/07/01 05:45:08;;;;;;;;;;;;;;;-142.75;72.36;77109.69;5077096;28;19916;-78
2021/07/01 05:47:36;;;;;;;;;;;;;;;-142.75;71.97;77103.78;5088447;28;19920;-78
2021/07/01 05:50:01;;;;;;;;;;;;;;;-142.75;71.72;77097.88;5077873;28;19967;-79
2021/07/01 05:52:29;;;;;;;;;;;;;;;-142.75;71.62;77099.84;5084191;28;19923;-78
2021/07/01 05:54:57;;;;;;;;;;;;;;;-142.75;72.14;77097.88;5089232;28;19920;-80
2021/07/01 05:57:28;;;;;;;;;;;;;;;-142.75;72.01;77095.91;5085741;28;20255;-80
2021/07/01 05:59:53;;;;;;;;;;;;;;;-142.75;72.36;77088.03;5073791;28;19969;-79
2021/07/01 06:02:18;;;;;;;;;;;;;;;-142.75;72.01;77080.16;5091562;28;19928;-79
2021/07/01 06:04:44;;;;;;;;;;;;;;;-142.75;72.20;77086.06;5091698;28;19931;-79
2021/07/01 06:07:10;;;;;;;;;;;;;;;-142.75;72.03;77078.19;5079965;28;20378;-79
2021/07/01 06:09:37;;;;;;;;;;;;;;;-142.75;71.84;77082.13;5092050;28;19924;-80
2021/07/01 06:12:02;;;;;;;;;;;;;;;-142.75;72.05;77080.16;5087030;28;19922;-78
2021/07/01 06:14:29;;;;;;;;;;;;;;;-142.75;71.99;77076.22;5083598;28;19916;-78
2021/07/01 06:16:55;;;;;;;;;;;;;;;-142.75;72.24;77078.19;5091961;28;20367;-79
2021/07/01 06:19:21;;;;;;;;;;;;;;;-142.75;72.58;77076.22;5092685;28;19970;-80
2021/07/01 06:21:47;;;;;;;;;;;;;;;-142.75;72.33;77074.25;5091805;28;19920;-80
2021/07/01 06:24:13;;;;;;;;;;;;;;;-142.75;72.39;77074.25;5092043;28;19951;-79
2021/07/01 06:26:38;;;;;;;;;;;;;;;-142.75;72.12;77064.41;5081332;28;19978;-79
2021/07/01 06:29:04;;;;;;;;;;;;;;;-142.75;72.04;77062.44;5073623;28;20408;-82
2021/07/01 06:31:29;;;;;;;;;;;;;;;-142.75;72.00;77066.38;5076595;28;19917;-80
2021/07/01 06:33:54;;;;;;;;;;;;;;;-142.75;72.18;77060.47;5084269;28;20313;-80
2021/07/01 06:36:23;;;;;;;;;;;;;;;-142.75;72.09;77054.56;5087879;28;19920;-80
2021/07/01 06:38:53;;;;;;;;;;;;;;;-142.75;72.36;77044.72;5084454;28;19952;-80
2021/07/01 06:41:19;;;;;;;;;;;;;;;-142.75;72.15;77030.94;5091377;28;19916;-80
2021/07/01 06:43:47;;;;;;;;;;;;;;;-142.75;71.85;77027.00;5083262;28;19923;-79
2021/07/01 06:46:13;;;;;;;;;;;;;;;-142.75;70.87;77023.06;5073472;28;19923;-79
2021/07/01 06:48:38;;;;;;;;;;;;;;;-142.75;70.91;77027.00;5079535;28;19920;-80
2021/07/01 06:51:06;;;;;;;;;;;;;;;-142.75;70.79;77028.97;5081343;28;19924;-79
2021/07/01 06:53:35;;;;;;;;;;;;;;;-142.75;70.52;77021.09;5091265;28;19946;-79
2021/07/01 06:56:00;;;;;;;;;;;;;;;-142.75;70.68;77028.97;5085341;28;19938;-79
2021/07/01 06:58:25;;;;;;;;;;;;;;;-142.75;70.75;77034.88;5090650;28;19916;-79
2021/07/01 07:00:51;;;;;;;;;;;;;;;-142.75;70.34;77034.88;5089520;28;20393;-79
2021/07/01 07:03:18;;;;;;;;;;;;;;;-142.75;70.22;77038.81;5086012;28;20026;-80
2021/07/01 07:05:50;;;;;;;;;;;;;;;-142.75;69.96;77036.84;5090931;28;20361;-80
2021/07/01 07:08:16;;;;;;;;;;;;;;;-142.75;70.37;77040.78;5089251;28;19926;-79
2021/07/01 07:10:43;;;;;;;;;;;;;;;-142.75;70.26;77040.78;5089203;28;19924;-79
2021/07/01 07:13:09;;;;;;;;;;;;;;;-142.75;70.34;77038.81;5074665;28;19916;-79
2021/07/01 07:15:34;;;;;;;;;;;;;;;-142.75;70.64;77034.88;5075768;28;19916;-80
2021/07/01 07:18:20;;;;;;;;;;;;;;;-142.75;70.12;77030.94;5075483;28;19924;-80
2021/07/01 07:20:46;;;;;;;;;;;;;;;-142.75;69.58;77025.03;5077909;28;19939;-80
2021/07/01 07:23:16;;;;;;;;;;;;;;;-142.75;69.48;77021.09;5081056;28;20003;-79
2021/07/01 07:25:41;;;;;;;;;;;;;;;-142.75;69.12;77017.16;5082043;28;19916;-79
2021/07/01 07:28:09;;;;;;;;;;;;;;;-142.75;69.67;77019.13;5072254;28;19939;-79
2021/07/01 07:30:34;;;;;;;;;;;;;;;-142.75;69.53;77021.09;5089662;28;19919;-80
2021/07/01 07:33:01;;;;;;;;;;;;;;;-142.75;69.98;77019.13;5078323;28;19942;-80
2021/07/01 07:35:27;;;;;;;;;;;;;;;-142.75;70.26;77015.19;5079351;28;19939;-80
2021/07/01 07:37:52;;;;;;;;;;;;;;;-142.75;69.67;77013.22;5077350;28;19923;-78
2021/07/01 07:40:17;;;;;;;;;;;;;;;-142.75;69.59;77021.09;5073982;28;20010;-79
2021/07/01 07:42:44;;;;;;;;;;;;;;;-142.75;70.27;77030.94;5082186;28;19919;-81
2021/07/01 07:45:09;;;;;;;;;;;;;;;-142.75;69.47;77032.91;5081583;28;19912;-81
2021/07/01 07:47:35;;;;;;;;;;;;;;;-142.75;69.55;77027.00;5078726;28;20274;-78
2021/07/01 07:50:00;;;;;;;;;;;;;;;-142.75;69.49;77023.06;5086377;28;19916;-79
2021/07/01 07:52:25;;;;;;;;;;;;;;;-142.75;69.75;77023.06;5078547;28;19917;-79
2021/07/01 07:54:53;;;;;;;;;;;;;;;-142.75;69.61;77023.06;5079078;28;20019;-80
2021/07/01 07:57:20;;;;;;;;;;;;;;;-142.75;69.87;77019.13;5076629;28;19924;-80
2021/07/01 07:59:49;;;;;;;;;;;;;;;-142.75;69.52;77021.09;5077366;28;19920;-79
2021/07/01 08:02:28;;;;;;;;;;;;;;;-142.75;69.60;77011.25;5077235;28;20016;-80
2021/07/01 08:04:55;;;;;;;;;;;;;;;-142.75;68.48;77007.31;5077353;28;19912;-81
2021/07/01 08:07:21;;;;;;;;;;;;;;;-142.75;68.30;77007.31;5085147;28;19928;-79
2021/07/01 08:09:46;;;;;;;;;;;;;;;-142.75;68.38;77017.16;5078531;28;20023;-80
2021/07/01 08:12:14;;;;;;;;;;;;;;;-142.75;68.93;77011.25;5083599;28;20381;-80
2021/07/01 08:14:42;;;;;;;;;;;;;;;-142.75;69.04;77013.22;5070542;28;20273;-80
2021/07/01 08:17:08;;;;;;;;;;;;;;;-142.75;68.29;77005.34;5074762;28;19919;-80
2021/07/01 08:19:36;;;;;;;;;;;;;;;-142.75;68.03;76997.47;5077779;28;19913;-79
2021/07/01 08:22:02;;;;;;;;;;;;;;;-142.75;68.55;76989.59;5073909;28;19919;-78
2021/07/01 08:24:27;;;;;;;;;;;;;;;-142.75;68.30;76987.63;5080470;28;19999;-79
2021/07/01 08:26:53;;;;;;;;;;;;;;;-142.75;68.53;76981.72;5075493;28;20395;-80
2021/07/01 08:29:18;;;;;;;;;;;;;;;-142.75;67.90;76975.81;5075358;28;19918;-78
2021/07/01 08:31:46;;;;;;;;;;;;;;;-142.75;67.30;76967.94;5080074;28;19919;-79
2021/07/01 08:34:13;;;;;;;;;;;;;;;-142.75;68.18;76960.06;5078711;28;19916;-79
2021/07/01 08:36:43;;;;;;;;;;;;;;;-142.75;68.70;76956.13;5092058;28;19912;-79
2021/07/01 08:39:08;;;;;;;;;;;;;;;-142.75;67.24;76948.25;5091373;28;19998;-79
2021/07/01 08:41:34;;;;;;;;;;;;;;;-142.75;67.15;76944.31;5080424;28;20011;-77
2021/07/01 08:44:01;;;;;;;;;;;;;;;-142.75;66.97;76948.25;5078244;28;19912;-80
2021/07/01 08:46:26;;;;;;;;;;;;;;;-142.75;66.89;76954.16;5082577;28;19973;-80
2021/07/01 08:48:59;;;;;;;;;;;;;;;-142.75;67.20;76940.38;5082195;28;19920;-78
2021/07/01 08:51:35;;;;;;;;;;;;;;;-142.75;66.02;76930.53;5082814;28;20460;-79
2021/07/01 08:54:09;;;;;;;;;;;;;;;-142.75;65.58;76920.69;5084684;28;19995;-79
2021/07/01 08:56:37;;;;;;;;;;;;;;;-142.75;66.03;76914.78;5087468;28;19912;-80
2021/07/01 08:59:06;;;;;;;;;;;;;;;-142.75;65.21;76930.53;5081849;28;19928;-79
2021/07/01 09:01:31;;;;;;;;;;;;;;;-142.75;65.57;76924.63;5091015;28;19919;-79
2021/07/01 09:03:57;;;;;;;;;;;;;;;-142.75;65.09;76916.75;5083570;28;20350;-79
2021/07/01 09:06:24;;;;;;;;;;;;;;;-142.75;66.07;76926.59;5083913;28;19923;-79
2021/07/01 09:08:53;;;;;;;;;;;;;;;-142.75;65.07;76932.50;5091622;28;20010;-79
2021/07/01 09:11:20;;;;;;;;;;;;;;;-142.75;65.34;76938.41;5085618;28;19935;-79
2021/07/01 09:13:46;;;;;;;;;;;;;;;-142.75;65.58;76930.53;5091118;28;20398;-80
2021/07/01 09:16:14;;;;;;;;;;;;;;;-142.75;65.56;76934.47;5086625;28;20038;-80
2021/07/01 09:18:39;;;;;;;;;;;;;;;-142.75;65.35;76930.53;5091458;28;20361;-79
2021/07/01 09:21:05;;;;;;;;;;;;;;;-142.75;65.43;76922.66;5091307;28;19951;-79
2021/07/01 09:23:30;;;;;;;;;;;;;;;-142.75;65.25;76912.81;5084211;28;20002;-80
2021/07/01 09:25:59;;;;;;;;;;;;;;;-142.75;64.69;76893.13;5075170;28;20289;-79
2021/07/01 09:28:25;;;;;;;;;;;;;;;-142.75;65.37;76877.38;5090590;28;20011;-80
2021/07/01 09:30:50;;;;;;;;;;;;;;;-142.75;64.69;76869.50;5072044;28;20056;-79
2021/07/01 09:33:16;;;;;;;;;;;;;;;-142.75;65.31;76851.78;5078218;28;19956;-79
2021/07/01 09:35:43;;;;;;;;;;;;;;;-142.75;64.36;76836.03;5094160;28;19920;-80
2021/07/01 09:38:11;;;;;;;;;;;;;;;-142.75;64.95;76830.13;5089953;28;19912;-79
2021/07/01 09:40:36;;;;;;;;;;;;;;;-142.75;64.81;76838.00;5094823;28;19912;-78
2021/07/01 09:43:04;;;;;;;;;;;;;;;-142.75;64.45;76847.84;5081579;28;19912;-79
2021/07/01 09:45:30;;;;;;;;;;;;;;;-142.75;64.82;76847.84;5093322;28;19992;-80
2021/07/01 09:48:00;;;;;;;;;;;;;;;-142.75;64.78;76861.63;5095932;28;19986;-79
2021/07/01 09:50:26;;;;;;;;;;;;;;;-142.75;65.65;76853.75;5093299;28;19919;-79
2021/07/01 09:52:53;;;;;;;;;;;;;;;-142.75;65.68;76847.84;5082569;28;20357;-78
2021/07/01 09:55:19;;;;;;;;;;;;;;;-142.75;65.69;76845.88;5102695;28;19916;-78
2021/07/01 09:57:45;;;;;;;;;;;;;;;-142.75;64.33;76843.91;5083032;28;20370;-79
2021/07/01 10:00:11;;;;;;;;;;;;;;;-142.75;65.06;76836.03;5086683;28;20062;-79
2021/07/01 10:02:37;;;;;;;;;;;;;;;-142.75;64.67;76839.97;5094090;28;20002;-79
2021/07/01 10:05:07;;;;;;;;;;;;;;;-142.75;64.90;76857.69;5085726;28;19943;-79
2021/07/01 10:07:32;;;;;;;;;;;;;;;-142.75;65.09;76865.56;5082163;28;20399;-78
2021/07/01 10:10:09;;;;;;;;;;;;;;;-142.75;66.39;76861.63;5094219;28;20003;-79
2021/07/01 10:12:46;;;;;;;;;;;;;;;-142.75;65.69;76869.50;5087413;28;19939;-80
2021/07/01 10:15:23;;;;;;;;;;;;;;;-142.75;65.82;76885.25;5094408;28;19916;-78
2021/07/01 10:18:06;;;;;;;;;;;;;;;-142.75;66.71;76891.16;5093084;28;20295;-79
2021/07/01 10:20:37;;;;;;;;;;;;;;;-142.75;66.20;76893.13;5094685;28;20336;-78
2021/07/01 10:23:02;;;;;;;;;;;;;;;-142.75;66.10;76889.19;5080620;28;19919;-78
2021/07/01 10:25:28;;;;;;;;;;;;;;;-142.75;66.66;76889.19;5093940;28;19979;-80
2021/07/01 10:27:54;;;;;;;;;;;;;;;-142.75;66.78;76889.19;5081049;28;20378;-78
2021/07/01 10:30:21;;;;;;;;;;;;;;;-142.75;66.36;76881.31;5084977;28;19927;-81
2021/07/01 10:32:48;;;;;;;;;;;;;;;-142.75;66.69;76861.63;5079227;28;20257;-78
2021/07/01 10:35:22;;;;;;;;;;;;;;;-142.75;66.15;76838.00;5094080;28;19976;-81
2021/07/01 10:38:07;;;;;;;;;;;;;;;-142.75;66.54;76818.31;5079228;28;19920;-78
2021/07/01 10:40:34;;;;;;;;;;;;;;;-142.75;66.11;76802.56;5076368;28;19998;-79
2021/07/01 10:43:00;;;;;;;;;;;;;;;-142.75;65.44;76790.78;5082003;28;19912;-79
2021/07/01 10:45:25;;;;;;;;;;;;;;;-142.75;64.88;76773.06;5092606;28;19912;-80
2021/07/01 10:47:51;;;;;;;;;;;;;;;-142.75;64.57;76771.09;5093540;28;19920;-79
2021/07/01 10:50:24;;;;;;;;;;;;;;;-142.75;65.63;76755.34;5080897;28;19913;-79
2021/07/01 10:52:49;;;;;;;;;;;;;;;-142.75;63.22;76739.59;5080647;28;19912;-79
2021/07/01 10:55:15;;;;;;;;;;;;;;;-142.75;63.85;76727.78;5087536;28;19916;-80
2021/07/01 10:57:46;;;;;;;;;;;;;;;-142.75;61.85;76704.16;5093687;28;19912;-78
2021/07/01 11:00:11;;;;;;;;;;;;;;;-142.75;61.26;76688.41;5092847;28;21753;-79
2021/07/01 11:02:41;;;;;;;;;;;;;;;-142.75;62.01;76670.69;5093492;28;19912;-79
2021/07/01 11:05:07;;;;;;;;;;;;;;;-142.75;60.01;76662.81;5093664;28;19912;-80
2021/07/01 11:07:45;;;;;;;;;;;;;;;-142.75;59.03;76668.72;5092535;28;19916;-78
2021/07/01 11:10:11;;;;;;;;;;;;;;;-142.75;59.47;76662.81;5093669;28;19916;-79
2021/07/01 11:12:43;;;;;;;;;;;;;;;-142.75;59.81;76664.78;5093338;28;20007;-81
2021/07/01 11:15:09;;;;;;;;;;;;;;;-142.75;58.62;76680.53;5093051;28;19912;-78
2021/07/01 11:17:35;;;;;;;;;;;;;;;-142.75;59.94;76700.22;5092984;28;19912;-77
2021/07/01 11:20:14;;;;;;;;;;;;;;;-142.75;60.08;76708.09;5093241;28;19924;-80
2021/07/01 11:22:46;;;;;;;;;;;;;;;-142.75;61.76;76717.94;5086684;28;20003;-78
2021/07/01 11:25:26;;;;;;;;;;;;;;;-142.75;61.18;76733.69;5093437;28;19916;-78
2021/07/01 11:27:52;;;;;;;;;;;;;;;-142.75;60.69;76761.25;5080220;28;20323;-79
2021/07/01 11:30:25;;;;;;;;;;;;;;;-142.75;61.77;76778.97;5081785;28;20385;-78
2021/07/01 11:33:09;;;;;;;;;;;;;;;-142.75;61.79;76790.78;5082410;28;19958;-80
2021/07/01 11:35:35;;;;;;;;;;;;;;;-142.75;62.27;76806.50;5092568;28;20007;-78
2021/07/01 11:38:00;;;;;;;;;;;;;;;-142.75;62.64;76820.28;5093006;28;20393;-78
2021/07/01 11:40:25;;;;;;;;;;;;;;;-142.75;61.59;76830.13;5078952;28;20262;-80
2021/07/01 11:42:51;;;;;;;;;;;;;;;-142.75;61.03;76838.00;5081263;28;19960;-79
2021/07/01 11:45:16;;;;;;;;;;;;;;;-142.75;62.19;76830.13;5092262;28;20324;-79
2021/07/01 11:47:42;;;;;;;;;;;;;;;-142.75;62.15;76810.44;5091528;28;19927;-79
2021/07/01 11:50:09;;;;;;;;;;;;;;;-142.75;62.63;76804.53;5078648;28;19912;-79
2021/07/01 11:52:34;;;;;;;;;;;;;;;-142.75;62.19;76788.81;5086030;28;19962;-79
2021/07/01 11:55:00;;;;;;;;;;;;;;;-142.75;61.33;76777.00;5083380;28;19916;-78
2021/07/01 11:57:28;;;;;;;;;;;;;;;-142.75;60.50;76763.22;5077043;28;20019;-80
2021/07/01 11:59:54;;;;;;;;;;;;;;;-142.75;61.07;76771.09;5091340;28;20305;-79
2021/07/01 12:02:20;;;;;;;;;;;;;;;-142.75;61.50;76773.06;5083110;28;19912;-81
2021/07/01 12:04:45;;;;;;;;;;;;;;;-142.75;60.76;76790.78;5084452;28;19912;-78
2021/07/01 12:07:11;;;;;;;;;;;;;;;-142.75;61.68;76788.81;5080554;28;20392;-78
2021/07/01 12:09:37;;;;;;;;;;;;;;;-142.75;61.89;76761.25;5082284;28;19912;-80
2021/07/01 12:12:02;;;;;;;;;;;;;;;-142.75;61.46;76743.53;5090569;28;19919;-79
2021/07/01 12:14:31;;;;;;;;;;;;;;;-142.75;62.04;76715.97;5090952;28;19924;-79
2021/07/01 12:16:57;;;;;;;;;;;;;;;-142.75;60.89;76688.41;5078606;28;20033;-79
2021/07/01 12:19:42;;;;;;;;;;;;;;;-142.75;59.32;76690.38;5091223;28;20404;-78
2021/07/01 12:22:07;;;;;;;;;;;;;;;-142.75;59.89;76672.66;5074374;28;20024;-82
2021/07/01 12:24:32;;;;;;;;;;;;;;;-142.75;59.35;76664.78;5081833;28;19970;-80